Terminal Aerodrome Forecast
Issued by NWS Cleveland, OH

Home | Current Version | Previous Version | Graphics & Text | Print | Product List | Glossary On
Versions: 1 2 3 4 5 6 7 8 9 10 11 12 13 14 15 16 17 18 19 20 21 22 23 24 25
017
FTUS41 KCLE 192104 AAA
TAFTOL
TAF AMD
KTOL 192104Z 1921/2018 20012KT 6SM -SHRA OVC035 WS020/21045KT
      TEMPO 1921/1923 4SM -SHRA OVC025
     FM192300 20015G25KT P6SM OVC070
     FM200600 21015G25KT 6SM -SHRA OVC025
     FM201200 21015G25KT P6SM OVC035=

USA.gov is the U.S. government's official web portal to all federal, state and local government web resources and services.